sensor_id;sensor_type;location;lat;lon;timestamp;temperature;humidity
63802;DHT22;49949;43.060;25.624;2022-10-22T00:00:08;4.30;99.90
63802;DHT22;49949;43.060;25.624;2022-10-22T00:02:35;4.30;99.90
63802;DHT22;49949;43.060;25.624;2022-10-22T00:05:00;4.40;99.90
63802;DHT22;49949;43.060;25.624;2022-10-22T00:07:26;4.30;99.90
63802;DHT22;49949;43.060;25.624;2022-10-22T00:09:52;4.30;99.90
63802;DHT22;49949;43.060;25.624;2022-10-22T00:12:18;4.20;99.90
63802;DHT22;49949;43.060;25.624;2022-10-22T00:14:45;4.20;99.90
63802;DHT22;49949;43.060;25.624;2022-10-22T00:17:10;4.20;99.90
63802;DHT22;49949;43.060;25.624;2022-10-22T00:19:36;4.10;99.90
63802;DHT22;49949;43.060;25.624;2022-10-22T00:22:02;4.10;99.90
63802;DHT22;49949;43.060;25.624;2022-10-22T00:24:33;4.10;99.90
63802;DHT22;49949;43.060;25.624;2022-10-22T00:26:59;4.10;99.90
63802;DHT22;49949;43.060;25.624;2022-10-22T00:29:25;4.20;99.90
63802;DHT22;49949;43.060;25.624;2022-10-22T00:31:51;4.20;99.90
63802;DHT22;49949;43.060;25.624;2022-10-22T00:34:18;4.10;99.90
63802;DHT22;49949;43.060;25.624;2022-10-22T00:36:44;4.10;99.90
63802;DHT22;49949;43.060;25.624;2022-10-22T00:39:11;4.10;99.90
63802;DHT22;49949;43.060;25.624;2022-10-22T00:41:38;4.10;99.90
63802;DHT22;49949;43.060;25.624;2022-10-22T00:44:04;4.10;99.90
63802;DHT22;49949;43.060;25.624;2022-10-22T00:46:31;4.10;99.90
63802;DHT22;49949;43.060;25.624;2022-10-22T00:48:59;4.10;99.90
63802;DHT22;49949;43.060;25.624;2022-10-22T00:51:29;4.10;99.90
63802;DHT22;49949;43.060;25.624;2022-10-22T00:54:03;4.10;99.90
63802;DHT22;49949;43.060;25.624;2022-10-22T00:56:29;4.00;99.90
63802;DHT22;49949;43.060;25.624;2022-10-22T00:58:57;4.00;99.90
63802;DHT22;49949;43.060;25.624;2022-10-22T01:01:30;4.00;99.90
63802;DHT22;49949;43.060;25.624;2022-10-22T01:03:56;3.90;99.90
63802;DHT22;49949;43.060;25.624;2022-10-22T01:06:28;3.90;99.90
63802;DHT22;49949;43.060;25.624;2022-10-22T01:09:05;3.90;99.90
63802;DHT22;49949;43.060;25.624;2022-10-22T01:17:57;3.80;99.90
63802;DHT22;49949;43.060;25.624;2022-10-22T01:20:47;3.80;99.90
63802;DHT22;49949;43.060;25.624;2022-10-22T01:29:01;3.90;99.90
63802;DHT22;49949;43.060;25.624;2022-10-22T01:32:25;3.90;99.90
63802;DHT22;49949;43.060;25.624;2022-10-22T01:34:32;3.90;99.90
63802;DHT22;49949;43.060;25.624;2022-10-22T01:36:59;3.90;99.90
63802;DHT22;49949;43.060;25.624;2022-10-22T01:39:28;3.90;99.90
63802;DHT22;49949;43.060;25.624;2022-10-22T01:41:57;3.90;99.90
63802;DHT22;49949;43.060;25.624;2022-10-22T01:44:23;3.90;99.90
63802;DHT22;49949;43.060;25.624;2022-10-22T01:46:52;3.90;99.90
63802;DHT22;49949;43.060;25.624;2022-10-22T01:49:29;3.90;99.90
63802;DHT22;49949;43.060;25.624;2022-10-22T01:52:26;3.90;99.90
63802;DHT22;49949;43.060;25.624;2022-10-22T02:00:59;3.80;99.90
63802;DHT22;49949;43.060;25.624;2022-10-22T02:03:33;3.80;99.90
63802;DHT22;49949;43.060;25.624;2022-10-22T02:06:05;3.70;99.90
63802;DHT22;49949;43.060;25.624;2022-10-22T02:08:34;3.70;99.90
63802;DHT22;49949;43.060;25.624;2022-10-22T02:11:01;3.70;99.90
63802;DHT22;49949;43.060;25.624;2022-10-22T02:13:34;3.70;99.90
63802;DHT22;49949;43.060;25.624;2022-10-22T02:16:03;3.70;99.90
63802;DHT22;49949;43.060;25.624;2022-10-22T02:18:32;3.70;99.90
63802;DHT22;49949;43.060;25.624;2022-10-22T02:20:59;3.70;99.90
63802;DHT22;49949;43.060;25.624;2022-10-22T02:23:25;3.60;99.90
63802;DHT22;49949;43.060;25.624;2022-10-22T02:25:59;3.60;99.90
63802;DHT22;49949;43.060;25.624;2022-10-22T02:31:25;3.60;99.90
63802;DHT22;49949;43.060;25.624;2022-10-22T02:33:54;3.60;99.90
63802;DHT22;49949;43.060;25.624;2022-10-22T02:36:21;3.50;99.90
63802;DHT22;49949;43.060;25.624;2022-10-22T02:38:50;3.50;99.90
63802;DHT22;49949;43.060;25.624;2022-10-22T02:41:17;3.50;99.90
63802;DHT22;49949;43.060;25.624;2022-10-22T02:43:47;3.50;99.90
63802;DHT22;49949;43.060;25.624;2022-10-22T02:46:14;3.50;99.90
63802;DHT22;49949;43.060;25.624;2022-10-22T02:48:39;3.50;99.90
63802;DHT22;49949;43.060;25.624;2022-10-22T02:51:05;3.50;99.90
63802;DHT22;49949;43.060;25.624;2022-10-22T02:53:31;3.40;99.90
63802;DHT22;49949;43.060;25.624;2022-10-22T02:55:57;3.40;99.90
63802;DHT22;49949;43.060;25.624;2022-10-22T02:58:23;3.40;99.90
63802;DHT22;49949;43.060;25.624;2022-10-22T03:00:49;3.50;99.90
63802;DHT22;49949;43.060;25.624;2022-10-22T03:03:14;3.40;99.90
63802;DHT22;49949;43.060;25.624;2022-10-22T03:05:40;3.40;99.90
63802;DHT22;49949;43.060;25.624;2022-10-22T03:08:06;3.40;99.90
63802;DHT22;49949;43.060;25.624;2022-10-22T03:10:31;3.40;99.90
63802;DHT22;49949;43.060;25.624;2022-10-22T03:12:57;3.40;99.90
63802;DHT22;49949;43.060;25.624;2022-10-22T03:15:23;3.40;99.90
63802;DHT22;49949;43.060;25.624;2022-10-22T03:17:48;3.40;99.90
63802;DHT22;49949;43.060;25.624;2022-10-22T03:20:14;3.40;99.90
63802;DHT22;49949;43.060;25.624;2022-10-22T03:22:41;3.40;99.90
63802;DHT22;49949;43.060;25.624;2022-10-22T03:25:11;3.40;99.90
63802;DHT22;49949;43.060;25.624;2022-10-22T03:27:39;3.40;99.90
63802;DHT22;49949;43.060;25.624;2022-10-22T03:30:06;3.30;99.90
63802;DHT22;49949;43.060;25.624;2022-10-22T03:32:32;3.40;99.90
63802;DHT22;49949;43.060;25.624;2022-10-22T03:34:58;3.40;99.90
63802;DHT22;49949;43.060;25.624;2022-10-22T03:37:24;3.40;99.90
63802;DHT22;49949;43.060;25.624;2022-10-22T03:39:52;3.40;99.90
63802;DHT22;49949;43.060;25.624;2022-10-22T03:42:19;3.40;99.90
63802;DHT22;49949;43.060;25.624;2022-10-22T03:44:45;3.40;99.90
63802;DHT22;49949;43.060;25.624;2022-10-22T03:47:11;3.40;99.90
63802;DHT22;49949;43.060;25.624;2022-10-22T03:49:37;3.40;99.90
63802;DHT22;49949;43.060;25.624;2022-10-22T03:52:11;3.40;99.90
63802;DHT22;49949;43.060;25.624;2022-10-22T03:54:38;3.40;99.90
63802;DHT22;49949;43.060;25.624;2022-10-22T03:57:05;3.30;99.90
63802;DHT22;49949;43.060;25.624;2022-10-22T03:59:39;3.30;99.90
63802;DHT22;49949;43.060;25.624;2022-10-22T04:02:05;3.30;99.90
63802;DHT22;49949;43.060;25.624;2022-10-22T04:04:31;3.40;99.90
63802;DHT22;49949;43.060;25.624;2022-10-22T04:06:57;3.40;99.90
63802;DHT22;49949;43.060;25.624;2022-10-22T04:09:22;3.40;99.90
63802;DHT22;49949;43.060;25.624;2022-10-22T04:11:48;3.40;99.90
63802;DHT22;49949;43.060;25.624;2022-10-22T04:14:14;3.40;99.90
63802;DHT22;49949;43.060;25.624;2022-10-22T04:16:40;3.40;99.90
63802;DHT22;49949;43.060;25.624;2022-10-22T04:19:06;3.30;99.90
63802;DHT22;49949;43.060;25.624;2022-10-22T04:21:32;3.30;99.90
63802;DHT22;49949;43.060;25.624;2022-10-22T04:23:58;3.40;99.90
63802;DHT22;49949;43.060;25.624;2022-10-22T04:26:24;3.40;99.90
63802;DHT22;49949;43.060;25.624;2022-10-22T04:28:50;3.40;99.90
63802;DHT22;49949;43.060;25.624;2022-10-22T04:31:19;3.40;99.90
63802;DHT22;49949;43.060;25.624;2022-10-22T04:33:45;3.40;99.90
63802;DHT22;49949;43.060;25.624;2022-10-22T04:36:14;3.40;99.90
63802;DHT22;49949;43.060;25.624;2022-10-22T04:38:41;3.40;99.90
63802;DHT22;49949;43.060;25.624;2022-10-22T04:41:10;3.40;99.90
63802;DHT22;49949;43.060;25.624;2022-10-22T04:43:36;3.40;99.90
63802;DHT22;49949;43.060;25.624;2022-10-22T04:46:01;3.40;99.90
63802;DHT22;49949;43.060;25.624;2022-10-22T04:48:27;3.40;99.90
63802;DHT22;49949;43.060;25.624;2022-10-22T04:50:53;3.40;99.90
63802;DHT22;49949;43.060;25.624;2022-10-22T04:53:18;3.40;99.90
63802;DHT22;49949;43.060;25.624;2022-10-22T04:55:44;3.50;99.90
63802;DHT22;49949;43.060;25.624;2022-10-22T04:58:10;3.50;99.90
63802;DHT22;49949;43.060;25.624;2022-10-22T05:00:35;3.50;99.90
63802;DHT22;49949;43.060;25.624;2022-10-22T05:03:01;3.50;99.90
63802;DHT22;49949;43.060;25.624;2022-10-22T05:05:26;3.60;99.90
63802;DHT22;49949;43.060;25.624;2022-10-22T05:07:52;3.60;99.90
63802;DHT22;49949;43.060;25.624;2022-10-22T05:10:18;3.70;99.90
63802;DHT22;49949;43.060;25.624;2022-10-22T05:12:43;3.70;99.90
63802;DHT22;49949;43.060;25.624;2022-10-22T05:15:09;3.80;99.90
63802;DHT22;49949;43.060;25.624;2022-10-22T05:17:35;3.80;99.90
63802;DHT22;49949;43.060;25.624;2022-10-22T05:20:03;3.90;99.90
63802;DHT22;49949;43.060;25.624;2022-10-22T05:22:28;3.90;99.90
63802;DHT22;49949;43.060;25.624;2022-10-22T05:24:54;4.00;99.90
63802;DHT22;49949;43.060;25.624;2022-10-22T05:27:20;4.10;99.90
63802;DHT22;49949;43.060;25.624;2022-10-22T05:29:45;4.10;99.90
63802;DHT22;49949;43.060;25.624;2022-10-22T05:32:11;4.20;99.90
63802;DHT22;49949;43.060;25.624;2022-10-22T05:34:37;4.30;99.90
63802;DHT22;49949;43.060;25.624;2022-10-22T05:37:02;4.40;99.90
63802;DHT22;49949;43.060;25.624;2022-10-22T05:39:28;4.50;99.90
63802;DHT22;49949;43.060;25.624;2022-10-22T05:41:54;4.70;99.90
63802;DHT22;49949;43.060;25.624;2022-10-22T05:44:19;4.80;99.90
63802;DHT22;49949;43.060;25.624;2022-10-22T05:46:45;4.90;99.90
63802;DHT22;49949;43.060;25.624;2022-10-22T05:49:12;5.00;99.90
63802;DHT22;49949;43.060;25.624;2022-10-22T05:51:38;5.20;99.90
63802;DHT22;49949;43.060;25.624;2022-10-22T05:54:06;5.20;99.90
63802;DHT22;49949;43.060;25.624;2022-10-22T05:56:32;5.30;99.90
63802;DHT22;49949;43.060;25.624;2022-10-22T05:58:58;5.50;99.90
63802;DHT22;49949;43.060;25.624;2022-10-22T06:01:27;5.60;99.90
63802;DHT22;49949;43.060;25.624;2022-10-22T06:03:56;5.60;99.90
63802;DHT22;49949;43.060;25.624;2022-10-22T06:06:34;5.70;99.90
63802;DHT22;49949;43.060;25.624;2022-10-22T06:11:39;6.10;99.90
63802;DHT22;49949;43.060;25.624;2022-10-22T06:14:04;6.20;99.90
63802;DHT22;49949;43.060;25.624;2022-10-22T06:16:30;6.40;99.90
63802;DHT22;49949;43.060;25.624;2022-10-22T06:18:59;6.60;99.90
63802;DHT22;49949;43.060;25.624;2022-10-22T06:21:29;6.90;99.90
63802;DHT22;49949;43.060;25.624;2022-10-22T06:23:56;7.10;99.90
63802;DHT22;49949;43.060;25.624;2022-10-22T06:26:23;7.30;99.90
63802;DHT22;49949;43.060;25.624;2022-10-22T06:28:48;7.50;99.90
63802;DHT22;49949;43.060;25.624;2022-10-22T06:31:14;7.70;99.90
63802;DHT22;49949;43.060;25.624;2022-10-22T06:33:40;7.90;99.90
63802;DHT22;49949;43.060;25.624;2022-10-22T06:36:14;8.20;99.90
63802;DHT22;49949;43.060;25.624;2022-10-22T06:38:40;8.50;99.90
63802;DHT22;49949;43.060;25.624;2022-10-22T06:41:11;8.80;99.90
63802;DHT22;49949;43.060;25.624;2022-10-22T06:43:37;9.10;99.90
63802;DHT22;49949;43.060;25.624;2022-10-22T06:46:06;9.30;99.90
63802;DHT22;49949;43.060;25.624;2022-10-22T06:48:34;9.60;99.90
63802;DHT22;49949;43.060;25.624;2022-10-22T06:51:04;9.90;99.90
63802;DHT22;49949;43.060;25.624;2022-10-22T06:53:30;10.10;99.90
63802;DHT22;49949;43.060;25.624;2022-10-22T06:55:56;10.40;99.90
63802;DHT22;49949;43.060;25.624;2022-10-22T06:58:22;10.60;99.90
63802;DHT22;49949;43.060;25.624;2022-10-22T07:00:47;10.70;99.90
63802;DHT22;49949;43.060;25.624;2022-10-22T07:03:13;10.90;99.90
63802;DHT22;49949;43.060;25.624;2022-10-22T07:05:40;11.20;99.90
63802;DHT22;49949;43.060;25.624;2022-10-22T07:08:06;11.40;99.90
63802;DHT22;49949;43.060;25.624;2022-10-22T07:10:32;11.50;99.90
63802;DHT22;49949;43.060;25.624;2022-10-22T07:12:58;11.70;99.90
63802;DHT22;49949;43.060;25.624;2022-10-22T07:15:24;11.80;99.90
63802;DHT22;49949;43.060;25.624;2022-10-22T07:17:50;11.90;99.90
63802;DHT22;49949;43.060;25.624;2022-10-22T07:20:18;12.10;99.90
63802;DHT22;49949;43.060;25.624;2022-10-22T07:22:46;12.20;99.90
63802;DHT22;49949;43.060;25.624;2022-10-22T07:25:11;12.30;99.90
63802;DHT22;49949;43.060;25.624;2022-10-22T07:27:37;12.40;99.90
63802;DHT22;49949;43.060;25.624;2022-10-22T07:30:03;12.50;99.90
63802;DHT22;49949;43.060;25.624;2022-10-22T07:32:29;12.60;99.90
63802;DHT22;49949;43.060;25.624;2022-10-22T07:34:55;12.60;99.90
63802;DHT22;49949;43.060;25.624;2022-10-22T07:37:20;12.60;99.90
63802;DHT22;49949;43.060;25.624;2022-10-22T07:39:49;12.70;99.90
63802;DHT22;49949;43.060;25.624;2022-10-22T07:42:15;12.70;99.90
63802;DHT22;49949;43.060;25.624;2022-10-22T07:44:41;12.90;99.90
63802;DHT22;49949;43.060;25.624;2022-10-22T07:47:06;13.10;99.90
63802;DHT22;49949;43.060;25.624;2022-10-22T07:49:32;13.30;99.90
63802;DHT22;49949;43.060;25.624;2022-10-22T07:51:57;13.50;99.90
63802;DHT22;49949;43.060;25.624;2022-10-22T07:54:23;13.50;99.90
63802;DHT22;49949;43.060;25.624;2022-10-22T07:56:49;13.70;99.90
63802;DHT22;49949;43.060;25.624;2022-10-22T07:59:15;13.90;99.90
63802;DHT22;49949;43.060;25.624;2022-10-22T08:01:40;14.10;99.90
63802;DHT22;49949;43.060;25.624;2022-10-22T08:04:07;14.40;99.90
63802;DHT22;49949;43.060;25.624;2022-10-22T08:06:34;14.50;99.90
63802;DHT22;49949;43.060;25.624;2022-10-22T08:09:00;14.60;99.90
63802;DHT22;49949;43.060;25.624;2022-10-22T08:11:25;14.80;99.90
63802;DHT22;49949;43.060;25.624;2022-10-22T08:13:52;14.90;99.90
63802;DHT22;49949;43.060;25.624;2022-10-22T08:16:18;15.10;99.90
63802;DHT22;49949;43.060;25.624;2022-10-22T08:18:43;15.20;99.90
63802;DHT22;49949;43.060;25.624;2022-10-22T08:21:11;15.30;99.90
63802;DHT22;49949;43.060;25.624;2022-10-22T08:23:36;15.50;99.90
63802;DHT22;49949;43.060;25.624;2022-10-22T08:26:03;15.70;99.90
63802;DHT22;49949;43.060;25.624;2022-10-22T08:28:29;16.00;99.90
63802;DHT22;49949;43.060;25.624;2022-10-22T08:30:57;16.20;99.90
63802;DHT22;49949;43.060;25.624;2022-10-22T08:33:23;16.40;99.10
63802;DHT22;49949;43.060;25.624;2022-10-22T08:35:50;16.60;98.10
63802;DHT22;49949;43.060;25.624;2022-10-22T08:38:16;16.80;98.40
63802;DHT22;49949;43.060;25.624;2022-10-22T08:40:43;16.90;96.70
63802;DHT22;49949;43.060;25.624;2022-10-22T08:48:59;17.00;96.00
63802;DHT22;49949;43.060;25.624;2022-10-22T08:51:25;17.10;93.90
63802;DHT22;49949;43.060;25.624;2022-10-22T08:56:22;17.50;98.90
63802;DHT22;49949;43.060;25.624;2022-10-22T08:59:27;17.60;97.20
63802;DHT22;49949;43.060;25.624;2022-10-22T09:01:57;17.60;96.30
63802;DHT22;49949;43.060;25.624;2022-10-22T09:04:33;17.60;95.80
63802;DHT22;49949;43.060;25.624;2022-10-22T09:07:00;17.60;97.20
63802;DHT22;49949;43.060;25.624;2022-10-22T09:09:31;17.70;98.20
63802;DHT22;49949;43.060;25.624;2022-10-22T09:12:00;17.80;99.30
63802;DHT22;49949;43.060;25.624;2022-10-22T09:14:26;17.80;97.60
63802;DHT22;49949;43.060;25.624;2022-10-22T09:19:52;18.00;98.20
63802;DHT22;49949;43.060;25.624;2022-10-22T09:24:53;17.90;97.00
63802;DHT22;49949;43.060;25.624;2022-10-22T09:27:30;17.90;98.60
63802;DHT22;49949;43.060;25.624;2022-10-22T09:29:56;17.80;96.00
63802;DHT22;49949;43.060;25.624;2022-10-22T09:32:22;18.00;97.60
63802;DHT22;49949;43.060;25.624;2022-10-22T09:34:49;18.30;96.50
63802;DHT22;49949;43.060;25.624;2022-10-22T09:37:19;18.60;95.00
63802;DHT22;49949;43.060;25.624;2022-10-22T09:39:53;18.80;92.50
63802;DHT22;49949;43.060;25.624;2022-10-22T09:42:19;19.00;86.20
63802;DHT22;49949;43.060;25.624;2022-10-22T09:44:57;19.30;86.30
63802;DHT22;49949;43.060;25.624;2022-10-22T09:47:33;19.60;77.40
63802;DHT22;49949;43.060;25.624;2022-10-22T09:50:24;19.70;75.50
63802;DHT22;49949;43.060;25.624;2022-10-22T09:55:40;20.20;81.90
63802;DHT22;49949;43.060;25.624;2022-10-22T09:58:10;20.40;82.30
63802;DHT22;49949;43.060;25.624;2022-10-22T10:00:43;20.40;79.00
63802;DHT22;49949;43.060;25.624;2022-10-22T10:03:16;20.60;80.20
63802;DHT22;49949;43.060;25.624;2022-10-22T10:05:46;20.70;80.40
63802;DHT22;49949;43.060;25.624;2022-10-22T10:08:15;20.70;77.50
63802;DHT22;49949;43.060;25.624;2022-10-22T10:11:02;20.70;78.20
63802;DHT22;49949;43.060;25.624;2022-10-22T10:16:52;20.60;77.90
63802;DHT22;49949;43.060;25.624;2022-10-22T10:19:48;20.60;76.90
63802;DHT22;49949;43.060;25.624;2022-10-22T10:22:33;20.80;73.40
63802;DHT22;49949;43.060;25.624;2022-10-22T10:28:18;21.20;74.30
63802;DHT22;49949;43.060;25.624;2022-10-22T10:36:16;21.80;65.70
63802;DHT22;49949;43.060;25.624;2022-10-22T10:41:48;21.90;64.90
63802;DHT22;49949;43.060;25.624;2022-10-22T10:44:25;21.80;62.00
63802;DHT22;49949;43.060;25.624;2022-10-22T10:49:35;21.90;62.10
63802;DHT22;49949;43.060;25.624;2022-10-22T11:05:44;23.00;58.70
63802;DHT22;49949;43.060;25.624;2022-10-22T11:08:22;23.00;56.70
63802;DHT22;49949;43.060;25.624;2022-10-22T11:10:53;23.00;59.40
63802;DHT22;49949;43.060;25.624;2022-10-22T11:13:51;23.00;55.70
63802;DHT22;49949;43.060;25.624;2022-10-22T11:16:37;23.10;57.00
63802;DHT22;49949;43.060;25.624;2022-10-22T11:19:06;23.10;57.60
63802;DHT22;49949;43.060;25.624;2022-10-22T11:27:04;23.20;53.90
63802;DHT22;49949;43.060;25.624;2022-10-22T11:29:43;23.20;54.00
63802;DHT22;49949;43.060;25.624;2022-10-22T11:32:17;23.10;53.30
63802;DHT22;49949;43.060;25.624;2022-10-22T11:34:47;23.10;53.40
63802;DHT22;49949;43.060;25.624;2022-10-22T11:37:13;23.20;54.60
63802;DHT22;49949;43.060;25.624;2022-10-22T11:39:41;23.20;52.30
63802;DHT22;49949;43.060;25.624;2022-10-22T11:42:18;23.30;51.60
63802;DHT22;49949;43.060;25.624;2022-10-22T11:51:00;23.50;56.70
63802;DHT22;49949;43.060;25.624;2022-10-22T11:55:56;23.50;49.80
63802;DHT22;49949;43.060;25.624;2022-10-22T12:17:13;23.60;54.80
63802;DHT22;49949;43.060;25.624;2022-10-22T12:19:40;23.30;56.60
63802;DHT22;49949;43.060;25.624;2022-10-22T12:22:14;23.40;53.40
63802;DHT22;49949;43.060;25.624;2022-10-22T12:24:46;23.20;56.60
63802;DHT22;49949;43.060;25.624;2022-10-22T12:27:17;23.00;58.40
63802;DHT22;49949;43.060;25.624;2022-10-22T12:29:44;22.80;59.50
63802;DHT22;49949;43.060;25.624;2022-10-22T12:32:13;22.60;60.30
63802;DHT22;49949;43.060;25.624;2022-10-22T12:34:46;22.50;61.60
63802;DHT22;49949;43.060;25.624;2022-10-22T12:37:14;22.20;61.40
63802;DHT22;49949;43.060;25.624;2022-10-22T12:39:40;22.00;63.70
63802;DHT22;49949;43.060;25.624;2022-10-22T12:42:09;21.70;64.80
63802;DHT22;49949;43.060;25.624;2022-10-22T12:44:37;21.50;64.60
63802;DHT22;49949;43.060;25.624;2022-10-22T12:47:02;21.40;65.10
63802;DHT22;49949;43.060;25.624;2022-10-22T12:49:35;21.30;64.60
63802;DHT22;49949;43.060;25.624;2022-10-22T12:52:05;21.40;62.50
63802;DHT22;49949;43.060;25.624;2022-10-22T12:54:33;21.50;66.60
63802;DHT22;49949;43.060;25.624;2022-10-22T12:57:00;21.40;65.50
63802;DHT22;49949;43.060;25.624;2022-10-22T12:59:28;21.40;67.70
63802;DHT22;49949;43.060;25.624;2022-10-22T13:01:57;21.50;68.10
63802;DHT22;49949;43.060;25.624;2022-10-22T13:09:59;21.50;66.00
63802;DHT22;49949;43.060;25.624;2022-10-22T13:12:35;21.40;66.90
63802;DHT22;49949;43.060;25.624;2022-10-22T13:18:17;21.50;63.70
63802;DHT22;49949;43.060;25.624;2022-10-22T13:20:51;21.50;66.10
63802;DHT22;49949;43.060;25.624;2022-10-22T13:23:19;21.30;64.60
63802;DHT22;49949;43.060;25.624;2022-10-22T13:25:56;21.30;62.30
63802;DHT22;49949;43.060;25.624;2022-10-22T13:28:22;21.40;63.10
63802;DHT22;49949;43.060;25.624;2022-10-22T13:31:00;21.40;63.40
63802;DHT22;49949;43.060;25.624;2022-10-22T13:33:32;21.70;65.80
63802;DHT22;49949;43.060;25.624;2022-10-22T13:35:59;21.70;63.90
63802;DHT22;49949;43.060;25.624;2022-10-22T13:38:26;21.80;65.80
63802;DHT22;49949;43.060;25.624;2022-10-22T13:40:52;21.80;65.80
63802;DHT22;49949;43.060;25.624;2022-10-22T13:43:18;21.60;65.80
63802;DHT22;49949;43.060;25.624;2022-10-22T13:45:45;21.50;61.70
63802;DHT22;49949;43.060;25.624;2022-10-22T13:48:15;21.50;62.70
63802;DHT22;49949;43.060;25.624;2022-10-22T13:50:43;21.50;64.90
63802;DHT22;49949;43.060;25.624;2022-10-22T13:53:15;21.50;61.80
63802;DHT22;49949;43.060;25.624;2022-10-22T13:55:43;21.50;59.60
63802;DHT22;49949;43.060;25.624;2022-10-22T13:58:18;21.70;63.20
63802;DHT22;49949;43.060;25.624;2022-10-22T14:00:46;21.50;65.30
63802;DHT22;49949;43.060;25.624;2022-10-22T14:03:19;21.50;63.50
63802;DHT22;49949;43.060;25.624;2022-10-22T14:05:46;21.40;64.80
63802;DHT22;49949;43.060;25.624;2022-10-22T14:08:18;21.40;58.80
63802;DHT22;49949;43.060;25.624;2022-10-22T14:10:44;21.60;58.30
63802;DHT22;49949;43.060;25.624;2022-10-22T14:13:12;21.70;57.10
63802;DHT22;49949;43.060;25.624;2022-10-22T14:15:39;21.80;56.70
63802;DHT22;49949;43.060;25.624;2022-10-22T14:18:06;21.90;57.50
63802;DHT22;49949;43.060;25.624;2022-10-22T14:20:35;22.00;56.50
63802;DHT22;49949;43.060;25.624;2022-10-22T14:23:12;22.00;56.20
63802;DHT22;49949;43.060;25.624;2022-10-22T14:25:38;22.10;56.30
63802;DHT22;49949;43.060;25.624;2022-10-22T14:28:03;22.20;57.70
63802;DHT22;49949;43.060;25.624;2022-10-22T14:30:29;22.10;58.10
63802;DHT22;49949;43.060;25.624;2022-10-22T14:32:57;21.90;58.40
63802;DHT22;49949;43.060;25.624;2022-10-22T14:35:24;21.90;57.20
63802;DHT22;49949;43.060;25.624;2022-10-22T14:37:50;21.90;57.00
63802;DHT22;49949;43.060;25.624;2022-10-22T14:40:18;21.90;58.30
63802;DHT22;49949;43.060;25.624;2022-10-22T14:42:46;21.90;57.20
63802;DHT22;49949;43.060;25.624;2022-10-22T14:45:17;21.90;56.60
63802;DHT22;49949;43.060;25.624;2022-10-22T14:47:43;21.80;57.80
63802;DHT22;49949;43.060;25.624;2022-10-22T14:50:09;21.70;58.00
63802;DHT22;49949;43.060;25.624;2022-10-22T14:52:35;21.60;57.50
63802;DHT22;49949;43.060;25.624;2022-10-22T14:55:01;21.60;57.60
63802;DHT22;49949;43.060;25.624;2022-10-22T14:57:26;21.60;57.90
63802;DHT22;49949;43.060;25.624;2022-10-22T14:59:52;21.50;57.80
63802;DHT22;49949;43.060;25.624;2022-10-22T15:02:20;21.50;57.60
63802;DHT22;49949;43.060;25.624;2022-10-22T15:04:47;21.40;57.50
63802;DHT22;49949;43.060;25.624;2022-10-22T15:07:13;21.50;57.80
63802;DHT22;49949;43.060;25.624;2022-10-22T15:09:39;21.40;58.30
63802;DHT22;49949;43.060;25.624;2022-10-22T15:12:05;21.30;58.00
63802;DHT22;49949;43.060;25.624;2022-10-22T15:14:30;21.20;58.10
63802;DHT22;49949;43.060;25.624;2022-10-22T15:16:57;21.20;58.70
63802;DHT22;49949;43.060;25.624;2022-10-22T15:19:23;21.10;58.80
63802;DHT22;49949;43.060;25.624;2022-10-22T15:21:49;20.90;59.90
63802;DHT22;49949;43.060;25.624;2022-10-22T15:24:15;20.90;59.70
63802;DHT22;49949;43.060;25.624;2022-10-22T15:26:40;20.80;59.90
63802;DHT22;49949;43.060;25.624;2022-10-22T15:29:06;20.70;60.90
63802;DHT22;49949;43.060;25.624;2022-10-22T15:32:01;20.60;60.60
63802;DHT22;49949;43.060;25.624;2022-10-22T15:34:30;20.50;61.00
63802;DHT22;49949;43.060;25.624;2022-10-22T15:36:58;20.50;61.10
63802;DHT22;49949;43.060;25.624;2022-10-22T15:39:25;20.40;61.20
63802;DHT22;49949;43.060;25.624;2022-10-22T15:41:52;20.40;61.30
63802;DHT22;49949;43.060;25.624;2022-10-22T15:44:20;20.40;61.50
63802;DHT22;49949;43.060;25.624;2022-10-22T15:46:46;20.30;61.60
63802;DHT22;49949;43.060;25.624;2022-10-22T15:49:13;20.30;61.60
63802;DHT22;49949;43.060;25.624;2022-10-22T15:51:38;20.30;61.80
63802;DHT22;49949;43.060;25.624;2022-10-22T15:54:04;20.20;61.60
63802;DHT22;49949;43.060;25.624;2022-10-22T15:56:30;20.20;61.50
63802;DHT22;49949;43.060;25.624;2022-10-22T15:59:01;20.20;61.50
63802;DHT22;49949;43.060;25.624;2022-10-22T16:01:31;20.20;61.30
63802;DHT22;49949;43.060;25.624;2022-10-22T16:03:57;20.20;61.80
63802;DHT22;49949;43.060;25.624;2022-10-22T16:06:41;20.10;61.90
63802;DHT22;49949;43.060;25.624;2022-10-22T16:09:12;20.10;62.30
63802;DHT22;49949;43.060;25.624;2022-10-22T16:11:39;20.00;62.30
63802;DHT22;49949;43.060;25.624;2022-10-22T16:14:05;20.00;62.30
63802;DHT22;49949;43.060;25.624;2022-10-22T16:16:34;20.00;62.20
63802;DHT22;49949;43.060;25.624;2022-10-22T16:19:00;20.00;62.30
63802;DHT22;49949;43.060;25.624;2022-10-22T16:21:25;19.90;62.50
63802;DHT22;49949;43.060;25.624;2022-10-22T16:23:52;19.90;62.50
63802;DHT22;49949;43.060;25.624;2022-10-22T16:26:18;19.90;64.30
63802;DHT22;49949;43.060;25.624;2022-10-22T16:28:45;19.70;64.80
63802;DHT22;49949;43.060;25.624;2022-10-22T16:31:14;19.60;65.30
63802;DHT22;49949;43.060;25.624;2022-10-22T16:33:40;19.60;66.60
63802;DHT22;49949;43.060;25.624;2022-10-22T16:36:11;19.30;69.70
63802;DHT22;49949;43.060;25.624;2022-10-22T16:38:37;19.10;69.80
63802;DHT22;49949;43.060;25.624;2022-10-22T16:43:36;18.90;72.70
63802;DHT22;49949;43.060;25.624;2022-10-22T16:46:03;18.60;73.80
63802;DHT22;49949;43.060;25.624;2022-10-22T16:48:30;18.50;74.20
63802;DHT22;49949;43.060;25.624;2022-10-22T16:50:57;18.40;74.80
63802;DHT22;49949;43.060;25.624;2022-10-22T16:53:23;18.20;75.30
63802;DHT22;49949;43.060;25.624;2022-10-22T16:55:49;18.30;73.90
63802;DHT22;49949;43.060;25.624;2022-10-22T16:58:15;18.20;70.90
63802;DHT22;49949;43.060;25.624;2022-10-22T17:00:41;18.40;71.50
63802;DHT22;49949;43.060;25.624;2022-10-22T17:03:09;18.40;70.50
63802;DHT22;49949;43.060;25.624;2022-10-22T17:05:35;18.40;71.30
63802;DHT22;49949;43.060;25.624;2022-10-22T17:08:01;18.40;71.30
63802;DHT22;49949;43.060;25.624;2022-10-22T17:10:27;18.40;72.70
63802;DHT22;49949;43.060;25.624;2022-10-22T17:12:52;18.30;74.20
63802;DHT22;49949;43.060;25.624;2022-10-22T17:15:18;18.10;74.40
63802;DHT22;49949;43.060;25.624;2022-10-22T17:17:44;18.00;74.90
63802;DHT22;49949;43.060;25.624;2022-10-22T17:20:13;17.90;73.70
63802;DHT22;49949;43.060;25.624;2022-10-22T17:22:39;17.90;72.30
63802;DHT22;49949;43.060;25.624;2022-10-22T17:25:12;18.00;70.30